Time;durP1;ratioP1;P1;durP2;ratioP2;P2;SDS_P1;SDS_P2;PMS_P1;PMS_P2;Temp;Humidity;BMP_temperature;BMP_pressure;BME280_temperature;BME280_humidity;BME280_pressure;Samples;Min_cycle;Max_cycle;Signal;HPM_P1;HPM_P2
2021/04/04 00:00:23;;;;;;;8.65;4.50;;;;;;;5.11;60.45;100375.91;5114430;28;20070;-70
2021/04/04 00:02:48;;;;;;;7.25;4.55;;;;;;;4.97;58.09;100363.19;5113970;28;20060;-71
2021/04/04 00:05:15;;;;;;;8.95;5.03;;;;;;;5.08;57.32;100368.94;5079279;28;20437;-70
2021/04/04 00:07:41;;;;;;;9.45;5.15;;;;;;;4.99;56.15;100371.06;5115638;28;20061;-70
2021/04/04 00:10:09;;;;;;;10.35;5.53;;;;;;;4.57;55.76;100321.44;5097156;28;20036;-70
2021/04/04 00:12:34;;;;;;;9.38;5.00;;;;;;;4.97;55.44;100380.84;5113905;28;20039;-79
2021/04/04 00:15:00;;;;;;;8.32;4.75;;;;;;;4.45;56.11;100308.66;5114438;28;20036;-72
2021/04/04 00:17:26;;;;;;;9.77;5.68;;;;;;;4.36;55.60;100309.84;5113505;28;20046;-69
2021/04/04 00:19:51;;;;;;;7.88;4.97;;;;;;;4.56;56.00;100359.34;5095629;28;20031;-71
2021/04/04 00:22:17;;;;;;;10.02;5.60;;;;;;;4.67;56.31;100383.63;5114085;28;20458;-71
2021/04/04 00:24:42;;;;;;;9.90;5.00;;;;;;;4.58;56.32;100390.06;5095355;28;20111;-71
2021/04/04 00:27:08;;;;;;;8.52;5.43;;;;;;;4.58;56.47;100387.44;5114224;28;20024;-70
2021/04/04 00:29:33;;;;;;;9.75;5.35;;;;;;;4.45;57.05;100394.03;5113847;28;20450;-70
2021/04/04 00:31:58;;;;;;;9.15;5.43;;;;;;;4.38;57.18;100392.50;5113601;28;20027;-69
2021/04/04 00:34:24;;;;;;;9.70;5.75;;;;;;;4.40;57.52;100389.81;5095481;28;20036;-70
2021/04/04 00:36:50;;;;;;;9.10;5.63;;;;;;;4.45;56.96;100383.47;5094678;28;20043;-69
2021/04/04 00:39:16;;;;;;;12.20;5.88;;;;;;;4.38;56.73;100381.94;5113476;28;20466;-70
2021/04/04 00:41:43;;;;;;;10.07;5.97;;;;;;;4.46;57.31;100398.41;5113537;28;20053;-70
2021/04/04 00:44:09;;;;;;;11.80;6.13;;;;;;;4.28;58.26;100380.53;5113229;28;20410;-70
2021/04/04 00:46:35;;;;;;;9.73;6.15;;;;;;;4.07;58.19;100365.38;5095120;28;20028;-71
2021/04/04 00:49:00;;;;;;;9.85;6.18;;;;;;;4.10;58.43;100365.25;5095472;28;20039;-71
2021/04/04 00:51:26;;;;;;;10.85;6.72;;;;;;;3.98;58.59;100367.38;5113666;28;20031;-70
2021/04/04 00:53:52;;;;;;;12.43;6.32;;;;;;;4.08;59.34;100398.78;5113376;28;20489;-71
2021/04/04 00:56:18;;;;;;;11.73;7.25;;;;;;;3.92;59.55;100369.34;5113355;28;20032;-70
2021/04/04 00:58:44;;;;;;;11.10;6.38;;;;;;;4.04;59.45;100392.69;5095030;28;20040;-71
2021/04/04 01:01:10;;;;;;;11.68;6.25;;;;;;;3.97;60.01;100385.91;5113328;28;20040;-71
2021/04/04 01:03:36;;;;;;;12.57;6.35;;;;;;;3.90;60.01;100374.66;5095338;28;20028;-71
2021/04/04 01:06:07;;;;;;;11.02;6.78;;;;;;;4.00;60.08;100397.22;5113231;28;20027;-72
2021/04/04 01:08:35;;;;;;;10.38;6.63;;;;;;;3.74;60.92;100373.41;5113518;28;20031;-72
2021/04/04 01:11:01;;;;;;;9.60;6.25;;;;;;;3.90;61.08;100401.06;5112946;28;20075;-74
2021/04/04 01:13:29;;;;;;;10.55;6.65;;;;;;;3.87;61.43;100403.81;5113499;28;20039;-74
2021/04/04 01:15:58;;;;;;;11.18;6.97;;;;;;;3.73;62.02;100400.69;5113253;28;20118;-71
2021/04/04 01:18:32;;;;;;;12.35;6.93;;;;;;;3.57;62.83;100381.84;5113387;28;20047;-71
2021/04/04 01:21:03;;;;;;;11.35;6.95;;;;;;;3.73;62.52;100398.06;5113195;28;20059;-69
2021/04/04 01:23:47;;;;;;;12.20;7.18;;;;;;;3.31;63.00;100363.25;5113394;28;20032;-69
2021/04/04 01:26:26;;;;;;;12.50;6.97;;;;;;;3.64;62.75;100401.84;5095415;28;20028;-70
2021/04/04 01:28:53;;;;;;;13.05;7.53;;;;;;;3.56;63.34;100409.09;5112858;28;20073;-71
2021/04/04 01:31:20;;;;;;;13.02;6.72;;;;;;;3.32;62.96;100355.31;5094932;28;20126;-70
2021/04/04 01:33:50;;;;;;;11.32;6.93;;;;;;;3.47;63.07;100395.31;5113008;28;20547;-71
2021/04/04 01:36:17;;;;;;;13.18;7.38;;;;;;;3.34;63.54;100385.13;5096070;28;20051;-71
2021/04/04 01:38:44;;;;;;;12.50;6.97;;;;;;;3.43;63.86;100418.28;5112861;28;20436;-72
2021/04/04 01:41:22;;;;;;;11.23;6.80;;;;;;;3.45;64.24;100413.81;5095064;28;20120;-73
2021/04/04 01:43:50;;;;;;;12.98;6.78;;;;;;;3.12;64.43;100384.00;5112593;28;20115;-70
2021/04/04 01:46:16;;;;;;;11.68;7.00;;;;;;;2.99;64.21;100335.16;5113104;28;20027;-69
2021/04/04 01:48:42;;;;;;;12.02;7.30;;;;;;;3.32;64.34;100383.44;5097839;28;20474;-74
2021/04/04 01:51:10;;;;;;;11.80;6.55;;;;;;;3.32;63.88;100384.31;5081812;28;20031;-70
2021/04/04 01:53:37;;;;;;;11.63;6.75;;;;;;;3.33;63.88;100383.41;5116722;28;20067;-71
2021/04/04 01:56:03;;;;;;;11.20;6.60;;;;;;;3.42;63.92;100417.41;5116498;28;20039;-70
2021/04/04 01:58:31;;;;;;;10.63;6.30;;;;;;;3.15;64.38;100386.53;5116552;28;20032;-70
2021/04/04 02:00:57;;;;;;;11.40;7.10;;;;;;;3.41;64.24;100418.31;5098064;28;20118;-70
2021/04/04 02:03:23;;;;;;;12.48;7.05;;;;;;;2.86;64.90;100339.91;5116645;28;20115;-71
2021/04/04 02:05:51;;;;;;;12.48;6.85;;;;;;;3.04;65.37;100391.25;5116256;28;20036;-70
2021/04/04 02:08:17;;;;;;;11.15;7.00;;;;;;;2.80;65.44;100340.09;5098608;28;20142;-70
2021/04/04 02:10:44;;;;;;;12.15;7.10;;;;;;;3.33;64.69;100409.75;5098189;28;20478;-74
2021/04/04 02:13:11;;;;;;;12.32;7.28;;;;;;;3.13;64.77;100376.06;5116537;28;20155;-69
2021/04/04 02:15:38;;;;;;;13.55;7.40;;;;;;;3.22;65.30;100411.84;5116029;28;20486;-70
2021/04/04 02:18:10;;;;;;;12.15;6.95;;;;;;;3.13;65.29;100391.00;5115798;28;20140;-69
2021/04/04 02:20:37;;;;;;;13.23;7.25;;;;;;;3.12;64.99;100386.63;5116468;28;20420;-70
2021/04/04 02:23:06;;;;;;;12.50;6.88;;;;;;;3.02;65.34;100387.81;5097705;28;20035;-70
2021/04/04 02:25:31;;;;;;;15.63;8.10;;;;;;;2.92;65.92;100396.84;5116139;28;20036;-70
2021/04/04 02:27:58;;;;;;;14.23;7.47;;;;;;;3.21;65.96;100436.47;5115871;28;20028;-70
2021/04/04 02:30:24;;;;;;;12.75;7.72;;;;;;;3.06;65.97;100415.78;5097572;28;20066;-69
2021/04/04 02:32:57;;;;;;;13.60;7.22;;;;;;;3.00;66.04;100406.28;5097698;28;20035;-70
2021/04/04 02:35:33;;;;;;;;;;;;;;;3.19;66.04;100433.03;5116538;28;20059;-69
2021/04/04 02:38:03;;;;;;;13.52;7.32;;;;;;;3.14;66.30;100437.53;5115687;28;20278;-70
2021/04/04 02:40:31;;;;;;;11.93;6.93;;;;;;;2.86;66.56;100397.88;5097699;28;20462;-70
2021/04/04 02:42:58;;;;;;;13.95;7.32;;;;;;;3.02;66.54;100429.97;5115347;28;20031;-70
2021/04/04 02:45:27;;;;;;;11.40;6.93;;;;;;;2.93;66.77;100409.13;5114595;28;20051;-70
2021/04/04 02:47:58;;;;;;;11.07;6.80;;;;;;;2.84;66.43;100397.91;5097108;28;20126;-70
2021/04/04 02:50:27;;;;;;;11.70;6.57;;;;;;;3.06;66.58;100442.16;5115824;28;20352;-69
2021/04/04 02:52:57;;;;;;;11.15;6.53;;;;;;;2.97;66.65;100431.84;5115301;28;20111;-69
2021/04/04 02:55:24;;;;;;;14.02;7.20;;;;;;;3.06;66.49;100434.25;5115883;28;20031;-69
2021/04/04 02:57:53;;;;;;;9.73;6.43;;;;;;;2.79;66.59;100412.09;5115275;28;20072;-70
2021/04/04 03:00:20;;;;;;;11.73;6.43;;;;;;;2.60;66.62;100364.28;5114568;28;20028;-71
2021/04/04 03:02:46;;;;;;;12.45;6.95;;;;;;;2.69;66.50;100371.97;5115348;28;20065;-69
2021/04/04 03:05:12;;;;;;;11.73;6.50;;;;;;;2.64;66.61;100376.50;5115548;28;20036;-69
2021/04/04 03:07:41;;;;;;;11.18;6.85;;;;;;;3.00;66.29;100437.06;5115059;28;20042;-70
2021/04/04 03:10:08;;;;;;;13.07;6.63;;;;;;;2.94;66.58;100431.94;5114989;28;20043;-69
2021/04/04 03:12:36;;;;;;;13.23;6.65;;;;;;;2.76;66.74;100407.78;5115260;28;20050;-69
2021/04/04 03:15:05;;;;;;;12.25;6.85;;;;;;;2.98;66.32;100433.56;5114402;28;20039;-71
2021/04/04 03:17:31;;;;;;;10.65;6.65;;;;;;;2.72;67.11;100400.88;5096834;28;20035;-70
2021/04/04 03:19:58;;;;;;;14.00;7.22;;;;;;;2.83;67.34;100429.56;5114622;28;20043;-72
2021/04/04 03:22:27;;;;;;;10.33;6.23;;;;;;;2.72;67.33;100421.94;5115103;28;20042;-71
2021/04/04 03:24:53;;;;;;;11.35;6.53;;;;;;;2.85;67.05;100436.53;5114784;28;20298;-72
2021/04/04 03:27:20;;;;;;;12.23;6.43;;;;;;;2.83;67.04;100440.97;5114895;28;20486;-71
2021/04/04 03:29:47;;;;;;;14.95;7.13;;;;;;;2.75;67.52;100440.31;5114686;28;20478;-72
2021/04/04 03:32:13;;;;;;;11.50;7.03;;;;;;;2.48;67.87;100409.38;5114609;28;20036;-71
2021/04/04 03:34:39;;;;;;;13.77;7.13;;;;;;;2.51;67.63;100419.81;5114839;28;20035;-71
2021/04/04 03:37:05;;;;;;;11.63;6.75;;;;;;;2.51;67.50;100414.56;5096537;28;20421;-71
2021/04/04 03:39:31;;;;;;;14.63;6.95;;;;;;;2.27;67.68;100380.03;5096639;28;20032;-71
2021/04/04 03:42:00;;;;;;;12.75;7.35;;;;;;;2.65;67.61;100446.72;5096337;28;20036;-71
2021/04/04 03:44:30;;;;;;;12.27;6.85;;;;;;;2.74;67.53;100445.63;5114612;28;20093;-70
2021/04/04 03:46:57;;;;;;;12.23;6.63;;;;;;;2.30;68.08;100392.25;5114321;28;20385;-69
2021/04/04 03:49:24;;;;;;;12.38;6.95;;;;;;;2.44;67.73;100413.00;5114335;28;20028;-69
2021/04/04 03:51:54;;;;;;;12.68;7.00;;;;;;;2.15;67.81;100382.13;5096407;28;20092;-80
2021/04/04 03:54:21;;;;;;;14.55;7.20;;;;;;;2.49;68.54;100445.34;5114206;28;20032;-69
2021/04/04 03:56:49;;;;;;;12.27;6.90;;;;;;;2.38;68.15;100419.28;5079157;28;20040;-69
2021/04/04 03:59:17;;;;;;;13.52;7.28;;;;;;;2.56;68.53;100452.19;5114403;28;20046;-69
2021/04/04 04:01:47;;;;;;;13.18;7.47;;;;;;;2.48;68.48;100451.50;5114184;28;20027;-69
2021/04/04 04:04:15;;;;;;;14.00;7.93;;;;;;;2.49;68.66;100450.59;5095327;28;20028;-69
2021/04/04 04:06:43;;;;;;;12.68;7.60;;;;;;;2.46;68.66;100448.06;5114207;28;20378;-69
2021/04/04 04:09:12;;;;;;;13.50;7.10;;;;;;;2.36;69.06;100449.19;5113949;28;20107;-69
2021/04/04 04:11:40;;;;;;;12.73;7.32;;;;;;;2.41;69.05;100450.78;5114004;28;20047;-69
2021/04/04 04:14:08;;;;;;;12.35;6.90;;;;;;;2.24;68.90;100427.50;5113580;28;20035;-69
2021/04/04 04:16:37;;;;;;;12.02;7.07;;;;;;;2.19;68.48;100403.03;5114172;28;20492;-69
2021/04/04 04:19:08;;;;;;;12.80;7.22;;;;;;;2.41;68.53;100436.75;5113941;28;20056;-69
2021/04/04 04:21:36;;;;;;;11.88;7.07;;;;;;;2.15;68.70;100401.41;5095879;28;20034;-69
2021/04/04 04:24:06;;;;;;;13.35;7.15;;;;;;;2.44;68.54;100449.88;5113627;28;20027;-70
2021/04/04 04:26:36;;;;;;;13.48;6.97;;;;;;;2.48;68.61;100454.13;5095988;28;20477;-70
2021/04/04 04:29:02;;;;;;;12.00;7.10;;;;;;;2.31;68.51;100436.09;5113293;28;20371;-69
2021/04/04 04:31:33;;;;;;;12.32;7.38;;;;;;;2.28;69.32;100458.09;5113898;28;20116;-72
2021/04/04 04:34:01;;;;;;;16.02;8.32;;;;;;;2.44;68.62;100457.75;5113599;28;20034;-71
2021/04/04 04:36:30;;;;;;;15.25;7.70;;;;;;;2.49;68.71;100476.94;5114026;28;20032;-70
2021/04/04 04:38:57;;;;;;;13.60;7.88;;;;;;;1.99;68.88;100402.66;5113629;28;20019;-70
2021/04/04 04:41:23;;;;;;;17.08;9.13;;;;;;;2.24;68.92;100447.69;5113768;28;20031;-70
2021/04/04 04:43:55;;;;;;;15.18;8.55;;;;;;;2.37;68.98;100464.06;5113584;28;20067;-71
2021/04/04 04:46:21;;;;;;;12.55;7.50;;;;;;;2.27;69.04;100448.47;5114226;28;20027;-71
2021/04/04 04:48:47;;;;;;;14.23;7.85;;;;;;;2.45;69.13;100485.81;5095156;28;20081;-71
2021/04/04 04:51:12;;;;;;;12.50;7.20;;;;;;;2.08;68.96;100391.03;5113416;28;20031;-71
2021/04/04 04:53:39;;;;;;;12.13;7.18;;;;;;;2.75;67.96;100487.72;5113782;28;20038;-71
2021/04/04 04:56:06;;;;;;;14.48;8.18;;;;;;;2.80;68.04;100483.22;5095095;28;20036;-71
2021/04/04 04:58:34;;;;;;;15.20;7.88;;;;;;;2.68;68.27;100480.88;5113635;28;20045;-71
2021/04/04 05:01:03;;;;;;;14.80;7.85;;;;;;;2.60;67.76;100461.75;5113587;28;20533;-71
2021/04/04 05:03:29;;;;;;;12.15;7.45;;;;;;;2.91;67.25;100490.00;5113280;28;20513;-71
2021/04/04 05:06:01;;;;;;;11.57;7.57;;;;;;;2.88;66.86;100491.78;5078377;28;20111;-70
2021/04/04 05:08:27;;;;;;;13.93;7.45;;;;;;;2.99;66.46;100488.91;5113676;28;20031;-71
2021/04/04 05:10:53;;;;;;;15.40;8.07;;;;;;;2.90;66.63;100480.34;5113369;28;20058;-71
2021/04/04 05:13:19;;;;;;;12.18;7.30;;;;;;;2.79;66.25;100460.38;5112841;28;20059;-72
2021/04/04 05:15:48;;;;;;;15.52;8.48;;;;;;;3.01;66.38;100497.63;5095031;28;20485;-71
2021/04/04 05:18:14;;;;;;;15.05;7.65;;;;;;;3.12;66.12;100497.34;5094830;28;20088;-72
2021/04/04 05:20:39;;;;;;;13.38;7.88;;;;;;;2.87;65.63;100455.78;5095223;28;20039;-70
2021/04/04 05:23:06;;;;;;;15.20;7.93;;;;;;;3.23;65.93;100513.75;5115117;28;20036;-70
2021/04/04 05:25:33;;;;;;;15.23;8.20;;;;;;;2.96;65.33;100443.28;5081652;28;20070;-71
2021/04/04 05:27:58;;;;;;;12.77;8.05;;;;;;;3.40;64.90;100501.00;5117109;28;20036;-73
2021/04/04 05:30:25;;;;;;;13.15;8.10;;;;;;;3.44;64.70;100492.06;5117234;28;20031;-70
2021/04/04 05:32:53;;;;;;;12.52;7.68;;;;;;;3.16;64.33;100446.25;5117335;28;20367;-69
2021/04/04 05:35:21;;;;;;;14.65;8.05;;;;;;;3.33;64.56;100451.09;5116851;28;20036;-71
2021/04/04 05:37:48;;;;;;;13.02;7.60;;;;;;;3.80;63.25;100486.69;5117178;28;20038;-71
2021/04/04 05:40:21;;;;;;;13.25;7.82;;;;;;;4.09;63.14;100514.00;5116520;28;20058;-69
2021/04/04 05:42:55;;;;;;;12.68;7.20;;;;;;;4.24;61.73;100519.69;5116896;28;20092;-73
2021/04/04 05:45:39;;;;;;;13.95;8.00;;;;;;;4.22;62.46;100518.88;5116467;28;20128;-73
2021/04/04 05:48:54;;;;;;;12.43;7.97;;;;;;;4.27;61.71;100521.38;5116759;28;20027;-74
2021/04/04 05:51:41;;;;;;;13.70;8.02;;;;;;;4.18;61.45;100526.94;5116264;28;20129;-72
2021/04/04 05:54:16;;;;;;;11.65;7.18;;;;;;;4.30;61.27;100518.66;5116646;28;20035;-73
2021/04/04 05:56:53;;;;;;;14.25;7.93;;;;;;;4.46;60.75;100519.91;5116494;28;20051;-72
2021/04/04 05:59:46;;;;;;;12.65;7.63;;;;;;;4.46;60.70;100496.16;5116755;28;20028;-71
2021/04/04 06:02:54;;;;;;;12.43;7.80;;;;;;;4.60;60.88;100520.34;5116218;28;20385;-72
2021/04/04 06:05:54;;;;;;;13.82;7.55;;;;;;;4.56;60.04;100481.72;5097662;28;20040;-71
2021/04/04 06:08:48;;;;;;;12.55;7.13;;;;;;;5.07;58.67;100525.88;5116687;28;20036;-73
2021/04/04 06:11:33;;;;;;;13.77;7.47;;;;;;;5.03;58.93;100526.91;5116387;28;20378;-69
2021/04/04 06:14:17;;;;;;;12.75;8.43;;;;;;;5.28;57.89;100524.28;5116201;28;20435;-72
2021/04/04 06:16:55;;;;;;;12.73;8.07;;;;;;;5.10;57.89;100488.75;5116622;28;20118;-73
2021/04/04 06:19:21;;;;;;;11.43;7.20;;;;;;;5.46;57.22;100528.94;5116306;28;20363;-71
2021/04/04 06:22:24;;;;;;;10.75;7.25;;;;;;;5.66;56.83;100533.53;5116185;28;20043;-70
2021/04/04 06:24:57;;;;;;;11.60;6.97;;;;;;;5.63;56.17;100540.72;5119505;28;20070;-69
2021/04/04 06:27:35;;;;;;;12.18;7.38;;;;;;;5.57;55.99;100541.78;5116010;28;20478;-69
2021/04/04 06:33:36;;;;;;;11.68;7.20;;;;;;;6.02;53.48;100514.63;5080164;28;20101;-71
2021/04/04 06:36:17;;;;;;;10.77;6.90;;;;;;;6.22;52.54;100535.94;5115417;28;20088;-68
2021/04/04 06:39:04;;;;;;;10.75;7.57;;;;;;;6.26;51.53;100553.41;5111830;28;20479;-71
2021/04/04 06:41:52;;;;;;;13.18;8.27;;;;;;;6.14;52.03;100522.09;5115519;28;20026;-69
2021/04/04 06:44:51;;;;;;;16.15;8.90;;;;;;;6.12;51.13;100505.41;5112187;28;20042;-71
2021/04/04 06:47:27;;;;;;;14.05;9.13;;;;;;;6.83;49.83;100517.63;5079427;28;20047;-72
2021/04/04 06:50:06;;;;;;;13.52;8.82;;;;;;;6.79;49.44;100547.84;5098813;28;20031;-71
2021/04/04 06:52:42;;;;;;;15.27;8.30;;;;;;;7.11;48.00;100512.03;5114779;28;20072;-73
2021/04/04 06:55:15;;;;;;;11.65;8.07;;;;;;;7.46;47.26;100554.81;5112541;28;20417;-75
2021/04/04 06:57:53;;;;;;;12.18;7.90;;;;;;;7.27;47.43;100553.88;5114088;28;20050;-73
2021/04/04 07:00:28;;;;;;;12.80;6.90;;;;;;;6.89;47.91;100516.53;5112701;28;20031;-75
2021/04/04 07:03:05;;;;;;;11.35;7.88;;;;;;;6.54;49.40;100541.78;5096547;28;20023;-74
2021/04/04 07:05:33;;;;;;;11.73;8.25;;;;;;;6.21;50.04;100493.59;5114689;28;20023;-74
2021/04/04 07:08:15;;;;;;;12.75;8.25;;;;;;;6.64;49.45;100559.03;5112370;28;20115;-74
2021/04/04 07:10:59;;;;;;;12.35;8.27;;;;;;;6.54;49.86;100557.66;5112694;28;20031;-71
2021/04/04 07:13:59;;;;;;;12.75;7.63;;;;;;;6.74;49.11;100548.94;5112897;28;20347;-71
2021/04/04 07:16:47;;;;;;;14.68;7.95;;;;;;;6.65;49.03;100552.81;5112002;28;20034;-72
2021/04/04 07:19:43;;;;;;;10.50;7.13;;;;;;;6.73;48.92;100550.72;5113036;28;20529;-74
2021/04/04 07:22:50;;;;;;;10.85;6.15;;;;;;;6.79;48.12;100552.28;5112859;28;20043;-73
2021/04/04 07:25:39;;;;;;;9.85;6.38;;;;;;;6.69;47.06;100527.94;5066908;28;20051;-70
2021/04/04 07:28:20;;;;;;;9.40;5.93;;;;;;;6.84;47.63;100556.47;5115043;28;20123;-72
2021/04/04 07:30:52;;;;;;;9.38;5.80;;;;;;;6.59;47.15;100503.56;5114869;28;20038;-72
2021/04/04 07:33:27;;;;;;;9.32;5.20;;;;;;;7.00;46.70;100551.41;5114703;28;20031;-74
2021/04/04 07:36:15;;;;;;;10.98;6.07;;;;;;;7.03;46.36;100553.94;5114756;28;20076;-72
2021/04/04 07:38:52;;;;;;;7.78;4.95;;;;;;;7.11;45.36;100554.50;5115120;28;20027;-74
2021/04/04 07:41:38;;;;;;;9.88;5.38;;;;;;;6.82;46.13;100563.63;5114519;28;20028;-74
2021/04/04 07:44:07;;;;;;;8.18;5.10;;;;;;;6.89;46.39;100562.47;5105568;28;20058;-71
2021/04/04 07:46:50;;;;;;;8.90;5.30;;;;;;;7.14;46.23;100550.84;5113539;28;20043;-71
2021/04/04 07:49:34;;;;;;;8.35;5.07;;;;;;;7.08;45.50;100532.53;5113178;28;20478;-72
2021/04/04 07:52:03;;;;;;;9.02;5.28;;;;;;;7.16;44.97;100556.97;5113728;28;20063;-71
2021/04/04 07:54:36;;;;;;;7.63;4.60;;;;;;;7.12;44.07;100540.28;5113753;28;20110;-71
2021/04/04 07:57:46;;;;;;;7.40;4.60;;;;;;;7.16;43.56;100562.28;5114298;28;20035;-70
2021/04/04 08:00:13;;;;;;;8.45;4.60;;;;;;;7.31;43.87;100561.63;5113910;28;20490;-73
2021/04/04 08:03:03;;;;;;;6.85;3.80;;;;;;;7.40;42.68;100563.03;5112936;28;20086;-70
2021/04/04 08:05:31;;;;;;;6.80;3.83;;;;;;;7.43;42.30;100544.31;5114119;28;20153;-71
2021/04/04 08:08:02;;;;;;;6.90;3.72;;;;;;;7.38;42.80;100531.25;5100414;28;20031;-71
2021/04/04 08:10:52;;;;;;;6.82;3.60;;;;;;;7.49;42.09;100559.13;5096741;28;20030;-73
2021/04/04 08:13:33;;;;;;;7.07;4.18;;;;;;;7.52;42.60;100532.44;5106367;28;20145;-75
2021/04/04 08:16:14;;;;;;;8.73;4.50;;;;;;;7.67;42.34;100559.19;5089865;28;20057;-72
2021/04/04 08:18:40;;;;;;;4.68;2.88;;;;;;;7.45;40.64;100484.94;5109284;28;20078;-76
2021/04/04 08:21:15;;;;;;;4.25;2.67;;;;;;;7.91;39.69;100562.59;5112754;28;20078;-72
2021/04/04 08:24:02;;;;;;;6.13;2.97;;;;;;;7.45;39.37;100487.59;5110678;28;20063;-76
2021/04/04 08:26:35;;;;;;;5.63;3.08;;;;;;;7.45;40.55;100500.88;5112836;28;20027;-73
2021/04/04 08:29:20;;;;;;;;;;;;;;;8.00;41.11;100551.53;5112623;28;20055;-75
2021/04/04 08:31:57;;;;;;;6.38;3.72;;;;;;;7.85;41.24;100554.88;5086931;28;19916;-75
2021/04/04 08:34:48;;;;;;;5.75;3.60;;;;;;;7.90;40.54;100539.59;5109922;28;20084;-74
2021/04/04 08:37:23;;;;;;;6.57;3.90;;;;;;;7.79;40.65;100536.56;5110289;28;20401;-75
2021/04/04 08:39:54;;;;;;;5.78;3.45;;;;;;;7.79;39.69;100541.88;5091813;28;20024;-76
2021/04/04 08:42:21;;;;;;;5.93;3.03;;;;;;;7.89;40.54;100542.31;5111512;28;20028;-73
2021/04/04 08:45:11;;;;;;;5.30;3.30;;;;;;;8.08;39.68;100531.72;5112158;28;20039;-72
2021/04/04 08:47:41;;;;;;;5.95;3.30;;;;;;;8.13;40.04;100537.72;5083931;28;20054;-72
2021/04/04 08:50:28;;;;;;;5.70;3.42;;;;;;;8.21;39.84;100538.22;5112719;28;20027;-70
2021/04/04 08:53:02;;;;;;;5.35;3.00;;;;;;;8.32;39.79;100535.94;5112136;28;20043;-75
2021/04/04 08:55:29;;;;;;;6.20;3.38;;;;;;;8.33;40.02;100535.00;5112562;28;20428;-75
2021/04/04 08:58:01;;;;;;;5.97;3.60;;;;;;;8.26;39.40;100509.63;5114111;28;20046;-76
2021/04/04 09:00:28;;;;;;;5.75;3.20;;;;;;;8.36;38.84;100497.66;5116748;28;20214;-73
2021/04/04 09:03:01;;;;;;;5.55;3.22;;;;;;;8.67;39.86;100525.44;5116556;28;20039;-72
2021/04/04 09:05:30;;;;;;;6.15;3.60;;;;;;;8.75;38.84;100526.81;5116782;28;20050;-73
2021/04/04 09:07:58;;;;;;;6.40;3.35;;;;;;;8.65;37.37;100519.34;5116195;28;20039;-73
2021/04/04 09:10:41;;;;;;;5.88;3.30;;;;;;;8.38;36.81;100476.31;5116431;28;20034;-74
2021/04/04 09:13:12;;;;;;;7.95;2.90;;;;;;;8.73;37.10;100525.16;5116176;28;20127;-73
2021/04/04 09:15:51;;;;;;;6.57;3.30;;;;;;;8.50;37.16;100500.56;5114962;28;20046;-73
2021/04/04 09:18:18;;;;;;;4.57;2.83;;;;;;;8.66;36.41;100502.47;5115509;28;20048;-72
2021/04/04 09:20:45;;;;;;;6.00;3.40;;;;;;;8.87;36.70;100523.53;5116402;28;20038;-71
2021/04/04 09:23:15;;;;;;;9.25;4.32;;;;;;;9.09;37.52;100518.06;5097695;28;20490;-71
2021/04/04 09:25:51;;;;;;;7.55;3.50;;;;;;;8.97;35.01;100491.16;5116148;28;20084;-73
2021/04/04 09:28:17;;;;;;;4.93;2.63;;;;;;;9.12;33.96;100501.91;5115808;28;20038;-72
2021/04/04 09:30:45;;;;;;;4.97;3.15;;;;;;;8.65;34.67;100436.91;5081063;28;20466;-74
2021/04/04 09:33:12;;;;;;;4.55;2.47;;;;;;;9.18;34.42;100490.97;5115934;28;20028;-73
2021/04/04 09:35:40;;;;;;;4.57;2.78;;;;;;;9.33;35.01;100496.44;5116119;28;20084;-72
2021/04/04 09:38:10;;;;;;;4.93;2.97;;;;;;;9.25;33.39;100495.97;5115853;28;20032;-72
2021/04/04 09:40:37;;;;;;;5.78;2.75;;;;;;;9.45;34.83;100502.00;5115113;28;20402;-71
2021/04/04 09:43:11;;;;;;;4.65;2.92;;;;;;;9.54;33.48;100474.03;5097275;28;20553;-73
2021/04/04 09:45:38;;;;;;;5.70;2.85;;;;;;;9.66;33.04;100510.69;5115480;28;20027;-72
2021/04/04 09:48:24;;;;;;;9.23;3.28;;;;;;;9.30;34.15;100481.50;5115667;28;20036;-73
2021/04/04 09:51:04;;;;;;;5.32;3.28;;;;;;;9.69;34.97;100504.34;5115752;28;20019;-74
2021/04/04 09:53:41;;;;;;;6.07;3.38;;;;;;;10.03;33.45;100495.41;5115435;28;20028;-76
2021/04/04 09:56:11;;;;;;;5.35;3.03;;;;;;;10.17;33.77;100497.34;5115775;28;20035;-74
2021/04/04 09:58:44;;;;;;;4.55;2.70;;;;;;;9.61;32.48;100419.50;5115013;28;20046;-76
2021/04/04 10:01:20;;;;;;;4.80;2.60;;;;;;;10.04;31.75;100495.34;5115534;28;20542;-74
2021/04/04 10:03:56;;;;;;;4.78;2.50;;;;;;;10.17;31.33;100492.00;5096958;28;20034;-75
2021/04/04 10:06:21;;;;;;;8.07;2.50;;;;;;;10.22;30.59;100496.16;5097065;28;20039;-70
2021/04/04 10:08:57;;;;;;;4.68;2.65;;;;;;;10.29;30.96;100494.88;5114073;28;20390;-71
2021/04/04 10:11:24;;;;;;;3.70;2.42;;;;;;;10.31;31.40;100494.78;5115312;28;20027;-72
2021/04/04 10:13:50;;;;;;;7.25;2.88;;;;;;;10.48;31.32;100485.84;5099515;28;20095;-71
2021/04/04 10:16:23;;;;;;;5.30;3.13;;;;;;;10.69;30.85;100463.28;5115392;28;20047;-71
2021/04/04 10:19:06;;;;;;;5.33;3.40;;;;;;;10.76;29.93;100485.16;5095397;28;20047;-75
2021/04/04 10:21:40;;;;;;;5.28;2.60;;;;;;;10.58;30.99;100487.91;5093321;28;20421;-74
2021/04/04 10:24:31;;;;;;;4.25;2.70;;;;;;;10.62;31.62;100480.63;5114714;28;20123;-73
2021/04/04 10:27:23;;;;;;;4.05;2.42;;;;;;;10.62;31.46;100483.28;5112758;28;20088;-71
2021/04/04 10:30:01;;;;;;;4.43;2.50;;;;;;;10.58;31.02;100476.38;5116623;28;20031;-72
2021/04/04 10:32:27;;;;;;;4.50;2.55;;;;;;;10.04;30.45;100412.72;5119258;28;20030;-70
2021/04/04 10:34:52;;;;;;;4.72;2.75;;;;;;;10.31;30.06;100484.97;5114652;28;20031;-69
2021/04/04 10:37:26;;;;;;;4.45;2.75;;;;;;;10.04;30.28;100419.84;5096524;28;20027;-69
2021/04/04 10:39:56;;;;;;;4.68;2.92;;;;;;;10.51;30.22;100467.88;5114650;28;20045;-69
2021/04/04 10:42:22;;;;;;;5.32;2.40;;;;;;;10.71;29.36;100450.75;5114720;28;20039;-70
2021/04/04 10:44:48;;;;;;;4.85;2.30;;;;;;;10.76;29.67;100467.34;5113312;28;20494;-70
2021/04/04 10:47:22;;;;;;;5.55;2.92;;;;;;;10.67;29.40;100475.00;5113926;28;20043;-71
2021/04/04 10:49:49;;;;;;;5.25;2.38;;;;;;;10.54;29.67;100448.19;5114674;28;20027;-69
2021/04/04 10:52:17;;;;;;;4.43;2.50;;;;;;;9.96;29.62;100414.09;5080701;28;20035;-67
2021/04/04 10:54:43;;;;;;;4.10;2.45;;;;;;;10.61;29.75;100476.22;5094142;28;20044;-70
2021/04/04 10:57:09;;;;;;;5.55;2.30;;;;;;;10.81;29.89;100473.28;5106097;28;20035;-67
2021/04/04 10:59:35;;;;;;;4.15;2.60;;;;;;;10.86;30.19;100455.19;5114388;28;20035;-77
2021/04/04 11:02:02;;;;;;;5.57;2.75;;;;;;;10.85;30.69;100458.81;5095764;28;20084;-71
2021/04/04 11:04:32;;;;;;;4.65;2.83;;;;;;;10.89;30.26;100433.66;5114607;28;20028;-71
2021/04/04 11:07:02;;;;;;;5.38;3.20;;;;;;;11.01;30.41;100460.59;5114037;28;20119;-69
2021/04/04 11:09:27;;;;;;;5.18;3.28;;;;;;;10.81;30.89;100454.63;5113513;28;20031;-70
2021/04/04 11:12:00;;;;;;;4.43;3.08;;;;;;;10.58;31.18;100401.72;5113991;28;20023;-73
2021/04/04 11:14:31;;;;;;;5.13;3.08;;;;;;;10.58;30.74;100455.91;5114296;28;20485;-70
2021/04/04 11:17:03;;;;;;;6.18;3.40;;;;;;;10.54;30.99;100453.53;5114272;28;20067;-69
2021/04/04 11:19:34;;;;;;;4.20;2.85;;;;;;;10.57;31.43;100450.66;5111815;28;20432;-71
2021/04/04 11:22:05;;;;;;;5.45;3.28;;;;;;;10.34;31.41;100427.97;5095296;28;20059;-71
2021/04/04 11:24:32;;;;;;;5.80;3.20;;;;;;;10.31;32.04;100396.13;5111975;28;20036;-77
2021/04/04 11:27:02;;;;;;;5.90;3.42;;;;;;;10.44;32.33;100452.31;5113581;28;20042;-71
2021/04/04 11:29:29;;;;;;;7.03;3.50;;;;;;;10.45;32.09;100451.38;5114289;28;20036;-69
2021/04/04 11:32:14;;;;;;;5.65;3.20;;;;;;;10.39;32.17;100443.72;5114254;28;20046;-71
2021/04/04 11:34:40;;;;;;;5.00;2.92;;;;;;;10.39;32.03;100438.38;5113142;28;20122;-71
2021/04/04 11:37:26;;;;;;;5.78;3.58;;;;;;;10.25;33.26;100441.81;5114023;28;20044;-71
2021/04/04 11:40:19;;;;;;;5.53;3.22;;;;;;;10.32;32.71;100438.72;5095802;28;20371;-72
2021/04/04 11:42:48;;;;;;;6.13;3.63;;;;;;;10.34;32.98;100411.13;5113378;28;20088;-70
2021/04/04 11:45:32;;;;;;;7.63;4.05;;;;;;;10.76;32.51;100419.31;5113959;28;20131;-70
2021/04/04 11:48:28;;;;;;;5.10;3.22;;;;;;;11.21;32.00;100414.88;5111142;28;20066;-72
2021/04/04 11:50:53;;;;;;;5.95;3.30;;;;;;;11.14;30.87;100414.38;5111782;28;20081;-71
2021/04/04 11:53:42;;;;;;;5.72;3.65;;;;;;;11.30;31.30;100384.97;5113740;28;20043;-72